createdAt,value
2019-01-12T00:00:08.314Z,1012.42
2019-01-12T00:01:12.360Z,1012.43
2019-01-12T00:02:16.589Z,1012.44
2019-01-12T00:03:20.770Z,1012.44
2019-01-12T00:04:24.886Z,1012.44
2019-01-12T00:05:29.101Z,1012.46
2019-01-12T00:06:33.262Z,1012.47
2019-01-12T00:07:37.359Z,1012.50
2019-01-12T00:08:41.379Z,1012.51
2019-01-12T00:09:45.591Z,1012.51
2019-01-12T00:10:49.823Z,1012.51
2019-01-12T00:11:53.982Z,1012.50
2019-01-12T00:12:58.088Z,1012.49
2019-01-12T00:14:02.300Z,1012.48
2019-01-12T00:15:06.436Z,1012.49
2019-01-12T00:16:10.552Z,1012.48
2019-01-12T00:17:14.776Z,1012.41
2019-01-12T00:18:18.893Z,1012.42
2019-01-12T00:19:23.034Z,1012.40
2019-01-12T00:20:27.079Z,1012.42
2019-01-12T00:21:31.383Z,1012.43
2019-01-12T00:22:35.579Z,1012.43
2019-01-12T00:23:39.769Z,1012.44
2019-01-12T00:24:43.811Z,1012.43
2019-01-12T00:25:48.078Z,1012.43
2019-01-12T00:26:52.259Z,1012.46
2019-01-12T00:27:56.431Z,1012.49
2019-01-12T00:29:00.508Z,1012.50
2019-01-12T00:30:04.663Z,1012.51
2019-01-12T00:31:08.773Z,1012.50
2019-01-12T00:32:12.985Z,1012.51
2019-01-12T00:33:17.148Z,1012.54
2019-01-12T00:34:21.342Z,1012.50
2019-01-12T00:35:25.424Z,1012.46
2019-01-12T00:36:29.697Z,1012.42
2019-01-12T00:37:33.763Z,1012.44
2019-01-12T00:38:37.936Z,1012.42
2019-01-12T00:39:42.066Z,1012.41
2019-01-12T00:40:46.316Z,1012.35
2019-01-12T00:41:50.496Z,1012.37
2019-01-12T00:42:54.660Z,1012.37
2019-01-12T00:43:58.841Z,1012.40
2019-01-12T00:45:02.936Z,1012.39
2019-01-12T00:46:07.097Z,1012.40
2019-01-12T00:47:11.250Z,1012.40
2019-01-12T00:48:15.298Z,1012.40
2019-01-12T00:49:19.620Z,1012.40
2019-01-12T00:50:23.693Z,1012.37
2019-01-12T00:51:27.850Z,1012.37
2019-01-12T00:52:31.868Z,1012.38
2019-01-12T00:53:36.173Z,1012.39
2019-01-12T00:54:40.245Z,1012.35
2019-01-12T00:55:44.263Z,1012.35
2019-01-12T00:56:48.486Z,1012.35
2019-01-12T00:57:52.644Z,1012.37
2019-01-12T00:58:56.874Z,1012.36
2019-01-12T01:00:00.984Z,1012.39
2019-01-12T01:01:05.120Z,1012.36
2019-01-12T01:02:09.239Z,1012.37
2019-01-12T01:03:13.478Z,1012.35
2019-01-12T01:04:17.620Z,1012.32
2019-01-12T01:05:21.883Z,1012.31
2019-01-12T01:06:26.042Z,1012.29
2019-01-12T01:07:30.164Z,1012.30
2019-01-12T01:08:34.293Z,1012.29
2019-01-12T01:09:38.463Z,1012.30
2019-01-12T01:10:42.564Z,1012.29
2019-01-12T01:11:46.720Z,1012.28
2019-01-12T01:12:50.936Z,1012.29
2019-01-12T01:13:55.073Z,1012.30
2019-01-12T01:14:59.337Z,1012.30
2019-01-12T01:16:03.511Z,1012.35
2019-01-12T01:17:07.649Z,1012.33
2019-01-12T01:18:11.833Z,1012.32
2019-01-12T01:19:15.960Z,1012.36
2019-01-12T01:20:20.203Z,1012.36
2019-01-12T01:21:24.361Z,1012.39
2019-01-12T01:22:28.506Z,1012.38
2019-01-12T01:23:32.686Z,1012.39
2019-01-12T01:24:36.880Z,1012.39
2019-01-12T01:25:41.060Z,1012.42
2019-01-12T01:26:45.271Z,1012.39
2019-01-12T01:27:49.349Z,1012.40
2019-01-12T01:28:53.571Z,1012.40
2019-01-12T01:29:57.771Z,1012.44
2019-01-12T01:31:01.977Z,1012.40
2019-01-12T01:32:06.081Z,1012.44
2019-01-12T01:33:10.313Z,1012.46
2019-01-12T01:34:14.395Z,1012.46
2019-01-12T01:35:18.630Z,1012.47
2019-01-12T01:36:22.817Z,1012.45
2019-01-12T01:37:29.816Z,1012.44
2019-01-12T01:38:33.103Z,1012.47
2019-01-12T01:39:37.190Z,1012.44
2019-01-12T01:40:41.367Z,1012.44
2019-01-12T01:41:45.611Z,1012.39
2019-01-12T01:42:49.704Z,1012.41
2019-01-12T01:43:53.818Z,1012.40
2019-01-12T01:44:58.005Z,1012.39
2019-01-12T01:46:02.165Z,1012.36
2019-01-12T01:47:06.334Z,1012.37
2019-01-12T01:48:10.534Z,1012.36
2019-01-12T01:49:14.732Z,1012.36
2019-01-12T01:50:18.866Z,1012.36
2019-01-12T01:51:22.959Z,1012.38
2019-01-12T01:52:27.102Z,1012.41
2019-01-12T01:53:31.313Z,1012.41
2019-01-12T01:54:35.441Z,1012.41
2019-01-12T01:55:39.587Z,1012.41
2019-01-12T01:56:43.863Z,1012.37
2019-01-12T01:57:48.052Z,1012.35
2019-01-12T01:58:52.137Z,1012.35
2019-01-12T01:59:56.362Z,1012.32
2019-01-12T02:01:00.503Z,1012.33
2019-01-12T02:02:04.662Z,1012.31
2019-01-12T02:03:08.856Z,1012.33
2019-01-12T02:04:13.022Z,1012.34
2019-01-12T02:05:17.119Z,1012.35
2019-01-12T02:06:21.284Z,1012.35
2019-01-12T02:07:25.411Z,1012.35
2019-01-12T02:08:29.540Z,1012.36
2019-01-12T02:09:33.726Z,1012.37
2019-01-12T02:10:37.919Z,1012.38
2019-01-12T02:11:42.037Z,1012.37
2019-01-12T02:12:46.181Z,1012.39
2019-01-12T02:13:50.388Z,1012.41
2019-01-12T02:14:54.511Z,1012.41
2019-01-12T02:15:58.688Z,1012.42
2019-01-12T02:17:02.798Z,1012.40
2019-01-12T02:18:06.959Z,1012.39
2019-01-12T02:19:11.002Z,1012.40
2019-01-12T02:20:15.202Z,1012.40
2019-01-12T02:21:19.343Z,1012.39
2019-01-12T02:22:23.579Z,1012.38
2019-01-12T02:23:27.766Z,1012.37
2019-01-12T02:24:31.835Z,1012.38
2019-01-12T02:25:36.092Z,1012.37
2019-01-12T02:26:40.174Z,1012.34
2019-01-12T02:27:44.402Z,1012.35
2019-01-12T02:28:48.605Z,1012.32
2019-01-12T02:29:52.778Z,1012.29
2019-01-12T02:30:56.869Z,1012.30
2019-01-12T02:32:01.000Z,1012.27
2019-01-12T02:33:05.159Z,1012.28
2019-01-12T02:34:09.269Z,1012.25
2019-01-12T02:35:13.447Z,1012.24
2019-01-12T02:36:17.634Z,1012.22
2019-01-12T02:37:21.756Z,1012.22
2019-01-12T02:38:25.881Z,1012.24
2019-01-12T02:39:30.135Z,1012.23
2019-01-12T02:40:34.332Z,1012.22
2019-01-12T02:41:38.516Z,1012.22
2019-01-12T02:42:42.710Z,1012.22
2019-01-12T02:43:46.893Z,1012.20
2019-01-12T02:44:51.103Z,1012.24
2019-01-12T02:45:55.281Z,1012.23
2019-01-12T02:46:59.408Z,1012.24
2019-01-12T02:48:03.619Z,1012.22
2019-01-12T02:49:07.813Z,1012.20
2019-01-12T02:50:11.994Z,1012.18
2019-01-12T02:51:16.107Z,1012.17
2019-01-12T02:52:20.247Z,1012.10
2019-01-12T02:53:24.371Z,1012.10
2019-01-12T02:54:28.560Z,1012.11
2019-01-12T02:55:32.761Z,1012.12
2019-01-12T02:56:36.997Z,1012.12
2019-01-12T02:57:41.156Z,1012.12
2019-01-12T02:58:45.141Z,1012.12
2019-01-12T02:59:49.364Z,1012.13
2019-01-12T03:00:53.601Z,1012.09
2019-01-12T03:01:57.708Z,1012.09
2019-01-12T03:03:01.966Z,1012.10
2019-01-12T03:04:06.076Z,1012.08
2019-01-12T03:05:10.193Z,1012.07
2019-01-12T03:06:14.354Z,1012.08
2019-01-12T03:07:18.537Z,1012.07
2019-01-12T03:08:22.749Z,1012.05
2019-01-12T03:09:26.949Z,1012.01
2019-01-12T03:10:31.019Z,1012.00
2019-01-12T03:11:35.171Z,1011.98
2019-01-12T03:12:39.208Z,1011.99
2019-01-12T03:13:43.410Z,1012.00
2019-01-12T03:14:47.582Z,1011.98
2019-01-12T03:15:51.744Z,1011.96
2019-01-12T03:16:55.891Z,1011.94
2019-01-12T03:18:00.006Z,1011.92
2019-01-12T03:19:04.209Z,1011.91
2019-01-12T03:20:08.400Z,1011.92
2019-01-12T03:21:12.542Z,1011.91
2019-01-12T03:22:16.652Z,1011.89
2019-01-12T03:23:20.714Z,1011.90
2019-01-12T03:24:25.016Z,1011.90
2019-01-12T03:25:29.108Z,1011.87
2019-01-12T03:26:33.253Z,1011.85
2019-01-12T03:27:37.348Z,1011.87
2019-01-12T03:28:41.644Z,1011.85
2019-01-12T03:29:45.807Z,1011.88
2019-01-12T03:30:49.854Z,1011.88
2019-01-12T03:31:54.043Z,1011.86
2019-01-12T03:32:58.174Z,1011.85
2019-01-12T03:34:02.294Z,1011.86
2019-01-12T03:35:06.550Z,1011.86
2019-01-12T03:36:10.651Z,1011.83
2019-01-12T03:37:14.864Z,1011.84
2019-01-12T03:38:19.078Z,1011.87
2019-01-12T03:39:23.168Z,1011.86
2019-01-12T03:40:27.339Z,1011.84
2019-01-12T03:41:31.498Z,1011.84
2019-01-12T03:42:35.672Z,1011.81
2019-01-12T03:43:39.832Z,1011.79
2019-01-12T03:44:43.993Z,1011.80
2019-01-12T03:45:47.980Z,1011.75
2019-01-12T03:46:52.218Z,1011.72
2019-01-12T03:47:56.471Z,1011.74
2019-01-12T03:49:00.643Z,1011.70
2019-01-12T03:50:04.739Z,1011.68
2019-01-12T03:51:08.877Z,1011.69
2019-01-12T03:52:13.062Z,1011.65
2019-01-12T03:53:17.332Z,1011.66
2019-01-12T03:54:21.447Z,1011.65
2019-01-12T03:55:26.031Z,1011.64
2019-01-12T03:56:29.756Z,1011.61
2019-01-12T03:57:33.915Z,1011.58
2019-01-12T03:58:38.179Z,1011.56
2019-01-12T03:59:42.292Z,1011.57
2019-01-12T04:00:46.384Z,1011.56
2019-01-12T04:01:50.544Z,1011.57
2019-01-12T04:02:54.713Z,1011.55
2019-01-12T04:03:58.917Z,1011.53
2019-01-12T04:05:03.034Z,1011.53
2019-01-12T04:06:07.180Z,1011.52
2019-01-12T04:07:11.336Z,1011.54
2019-01-12T04:08:15.606Z,1011.55
2019-01-12T04:09:19.670Z,1011.51
2019-01-12T04:10:23.831Z,1011.52
2019-01-12T04:11:27.970Z,1011.52
2019-01-12T04:12:32.070Z,1011.52
2019-01-12T04:13:36.271Z,1011.51
2019-01-12T04:14:40.407Z,1011.48
2019-01-12T04:15:44.543Z,1011.49
2019-01-12T04:16:48.778Z,1011.48
2019-01-12T04:17:52.826Z,1011.45
2019-01-12T04:18:56.995Z,1011.45
2019-01-12T04:20:01.131Z,1011.43
2019-01-12T04:21:05.250Z,1011.42
2019-01-12T04:22:09.373Z,1011.38
2019-01-12T04:23:13.633Z,1011.36
2019-01-12T04:24:17.839Z,1011.38
2019-01-12T04:25:22.039Z,1011.36
2019-01-12T04:26:26.213Z,1011.34
2019-01-12T04:27:30.327Z,1011.33
2019-01-12T04:28:34.537Z,1011.33
2019-01-12T04:29:38.733Z,1011.31
2019-01-12T04:30:42.825Z,1011.33
2019-01-12T04:31:46.959Z,1011.31
2019-01-12T04:32:51.067Z,1011.32
2019-01-12T04:33:55.233Z,1011.33
2019-01-12T04:34:59.391Z,1011.35
2019-01-12T04:36:03.567Z,1011.39
2019-01-12T04:37:07.724Z,1011.36
2019-01-12T04:38:11.868Z,1011.36
2019-01-12T04:39:16.047Z,1011.37
2019-01-12T04:40:20.157Z,1011.37
2019-01-12T04:41:24.409Z,1011.35
2019-01-12T04:42:28.486Z,1011.39
2019-01-12T04:43:32.654Z,1011.34
2019-01-12T04:44:36.694Z,1011.34
2019-01-12T04:45:40.996Z,1011.32
2019-01-12T04:46:45.146Z,1011.29
2019-01-12T04:47:49.288Z,1011.25
2019-01-12T04:48:53.408Z,1011.27
2019-01-12T04:49:57.727Z,1011.24
2019-01-12T04:51:01.841Z,1011.26
2019-01-12T04:52:05.992Z,1011.25
2019-01-12T04:53:10.128Z,1011.23
2019-01-12T04:54:14.255Z,1011.23
2019-01-12T04:55:18.543Z,1011.24
2019-01-12T04:56:22.654Z,1011.18
2019-01-12T04:57:26.777Z,1011.19
2019-01-12T04:58:31.040Z,1011.18
2019-01-12T04:59:35.292Z,1011.18
2019-01-12T05:00:39.349Z,1011.17
2019-01-12T05:01:43.503Z,1011.16
2019-01-12T05:02:47.667Z,1011.16
2019-01-12T05:03:51.800Z,1011.16
2019-01-12T05:04:55.941Z,1011.11
2019-01-12T05:06:00.133Z,1011.12
2019-01-12T05:07:04.337Z,1011.15
2019-01-12T05:08:08.433Z,1011.16
2019-01-12T05:09:12.606Z,1011.11
2019-01-12T05:10:16.774Z,1011.12
2019-01-12T05:11:21.030Z,1011.11
2019-01-12T05:12:25.234Z,1011.09
2019-01-12T05:13:29.339Z,1011.10
2019-01-12T05:14:36.463Z,1011.04
2019-01-12T05:15:39.684Z,1011.05
2019-01-12T05:16:43.891Z,1011.01
2019-01-12T05:17:47.998Z,1010.99
2019-01-12T05:18:52.240Z,1011.00
2019-01-12T05:19:56.395Z,1010.95
2019-01-12T05:21:00.573Z,1010.94
2019-01-12T05:22:04.778Z,1010.93
2019-01-12T05:23:08.845Z,1010.95
2019-01-12T05:24:13.078Z,1010.94
2019-01-12T05:25:17.144Z,1010.98
2019-01-12T05:26:21.406Z,1010.96
2019-01-12T05:27:25.599Z,1010.96
2019-01-12T05:28:29.772Z,1010.94
2019-01-12T05:29:33.876Z,1010.94
2019-01-12T05:30:38.020Z,1010.92
2019-01-12T05:31:42.181Z,1010.91
2019-01-12T05:32:46.337Z,1010.91
2019-01-12T05:33:50.498Z,1010.87
2019-01-12T05:34:54.719Z,1010.89
2019-01-12T05:35:58.923Z,1010.84
2019-01-12T05:37:03.040Z,1010.84
2019-01-12T05:38:07.153Z,1010.86
2019-01-12T05:39:11.315Z,1010.86
2019-01-12T05:40:15.474Z,1010.84
2019-01-12T05:41:19.675Z,1010.85
2019-01-12T05:42:23.725Z,1010.83
2019-01-12T05:43:27.932Z,1010.85
2019-01-12T05:44:32.063Z,1010.85
2019-01-12T05:45:36.253Z,1010.83
2019-01-12T05:46:40.413Z,1010.83
2019-01-12T05:47:44.546Z,1010.84
2019-01-12T05:48:48.777Z,1010.84
2019-01-12T05:49:54.236Z,1010.85
2019-01-12T05:50:57.043Z,1010.84
2019-01-12T05:52:01.245Z,1010.85
2019-01-12T05:53:05.327Z,1010.88
2019-01-12T05:54:09.488Z,1010.86
2019-01-12T05:55:13.738Z,1010.85
2019-01-12T05:56:17.964Z,1010.88
2019-01-12T05:57:22.104Z,1010.87
2019-01-12T05:58:26.237Z,1010.88
2019-01-12T05:59:30.401Z,1010.89
2019-01-12T06:00:34.586Z,1010.88
2019-01-12T06:01:38.812Z,1010.88
2019-01-12T06:02:42.939Z,1010.89
2019-01-12T06:03:47.152Z,1010.91
2019-01-12T06:04:51.370Z,1010.93
2019-01-12T06:05:55.496Z,1010.91
2019-01-12T06:06:59.746Z,1010.91
2019-01-12T06:08:03.978Z,1010.89
2019-01-12T06:09:08.049Z,1010.88
2019-01-12T06:10:12.217Z,1010.83
2019-01-12T06:11:16.457Z,1010.85
2019-01-12T06:12:20.473Z,1010.82
2019-01-12T06:13:24.684Z,1010.83
2019-01-12T06:14:28.917Z,1010.80
2019-01-12T06:15:33.039Z,1010.80
2019-01-12T06:16:37.136Z,1010.80
2019-01-12T06:17:41.297Z,1010.78
2019-01-12T06:18:45.550Z,1010.83
2019-01-12T06:19:49.707Z,1010.79
2019-01-12T06:20:53.773Z,1010.80
2019-01-12T06:21:57.952Z,1010.80
2019-01-12T06:23:02.142Z,1010.82
2019-01-12T06:24:06.266Z,1010.82
2019-01-12T06:25:10.457Z,1010.83
2019-01-12T06:26:14.728Z,1010.80
2019-01-12T06:27:18.903Z,1010.79
2019-01-12T06:28:23.043Z,1010.80
2019-01-12T06:29:27.157Z,1010.78
2019-01-12T06:30:31.347Z,1010.75
2019-01-12T06:31:35.565Z,1010.74
2019-01-12T06:32:39.700Z,1010.73
2019-01-12T06:33:43.881Z,1010.68
2019-01-12T06:34:48.137Z,1010.69
2019-01-12T06:35:52.215Z,1010.71
2019-01-12T06:36:56.501Z,1010.70
2019-01-12T06:38:00.567Z,1010.69
2019-01-12T06:39:04.793Z,1010.68
2019-01-12T06:40:08.935Z,1010.69
2019-01-12T06:41:13.178Z,1010.67
2019-01-12T06:42:17.273Z,1010.68
2019-01-12T06:43:21.558Z,1010.68
2019-01-12T06:44:25.654Z,1010.66
2019-01-12T06:45:29.894Z,1010.61
2019-01-12T06:46:34.086Z,1010.63
2019-01-12T06:47:38.182Z,1010.62
2019-01-12T06:48:42.469Z,1010.66
2019-01-12T06:49:49.653Z,1010.67
2019-01-12T06:50:52.851Z,1010.66
2019-01-12T06:51:56.950Z,1010.66
2019-01-12T06:53:01.130Z,1010.65
2019-01-12T06:54:05.295Z,1010.65
2019-01-12T06:55:09.451Z,1010.64
2019-01-12T06:56:13.602Z,1010.67
2019-01-12T06:57:17.762Z,1010.69
2019-01-12T06:58:21.912Z,1010.69
2019-01-12T06:59:26.175Z,1010.68
2019-01-12T07:00:30.264Z,1010.67
2019-01-12T07:01:34.529Z,1010.67
2019-01-12T07:02:38.737Z,1010.65
2019-01-12T07:03:42.844Z,1010.67
2019-01-12T07:04:47.088Z,1010.68
2019-01-12T07:05:51.240Z,1010.66
2019-01-12T07:06:55.480Z,1010.68
2019-01-12T07:07:59.676Z,1010.66
2019-01-12T07:09:03.769Z,1010.63
2019-01-12T07:10:08.059Z,1010.58
2019-01-12T07:11:12.132Z,1010.60
2019-01-12T07:12:16.333Z,1010.61
2019-01-12T07:13:20.476Z,1010.60
2019-01-12T07:14:24.751Z,1010.57
2019-01-12T07:15:28.833Z,1010.55
2019-01-12T07:16:32.994Z,1010.53
2019-01-12T07:17:37.176Z,1010.53
2019-01-12T07:18:41.412Z,1010.48
2019-01-12T07:19:45.650Z,1010.48
2019-01-12T07:20:49.856Z,1010.48
2019-01-12T07:21:53.931Z,1010.47
2019-01-12T07:22:58.075Z,1010.46
2019-01-12T07:24:02.221Z,1010.47
2019-01-12T07:25:06.481Z,1010.45
2019-01-12T07:26:10.635Z,1010.44
2019-01-12T07:27:14.842Z,1010.47
2019-01-12T07:28:19.075Z,1010.46
2019-01-12T07:29:23.140Z,1010.44
2019-01-12T07:30:27.400Z,1010.44
2019-01-12T07:31:31.585Z,1010.43
2019-01-12T07:32:35.777Z,1010.42
2019-01-12T07:33:39.964Z,1010.41
2019-01-12T07:34:44.135Z,1010.40
2019-01-12T07:35:48.375Z,1010.38
2019-01-12T07:36:52.548Z,1010.38
2019-01-12T07:37:56.683Z,1010.38
2019-01-12T07:39:00.992Z,1010.41
2019-01-12T07:40:05.172Z,1010.36
2019-01-12T07:41:09.390Z,1010.37
2019-01-12T07:42:13.494Z,1010.35
2019-01-12T07:43:17.682Z,1010.33
2019-01-12T07:44:21.916Z,1010.31
2019-01-12T07:45:26.135Z,1010.29
2019-01-12T07:46:30.343Z,1010.28
2019-01-12T07:47:34.486Z,1010.26
2019-01-12T07:48:38.651Z,1010.24
2019-01-12T07:49:42.902Z,1010.24
2019-01-12T07:50:47.021Z,1010.21
2019-01-12T07:51:51.207Z,1010.22
2019-01-12T07:52:55.495Z,1010.21
2019-01-12T07:53:59.694Z,1010.18
2019-01-12T07:55:03.886Z,1010.17
2019-01-12T07:56:08.112Z,1010.16
2019-01-12T07:57:12.287Z,1010.10
2019-01-12T07:58:16.490Z,1010.10
2019-01-12T07:59:20.660Z,1010.08
2019-01-12T08:00:24.786Z,1010.07
2019-01-12T08:01:29.057Z,1010.07
2019-01-12T08:02:33.180Z,1010.05
2019-01-12T08:03:37.328Z,1010.03
2019-01-12T08:04:41.482Z,1010.03
2019-01-12T08:05:45.720Z,1009.99
2019-01-12T08:06:49.863Z,1009.98
2019-01-12T08:07:54.115Z,1009.96
2019-01-12T08:08:58.247Z,1009.93
2019-01-12T08:10:02.495Z,1009.92
2019-01-12T08:11:06.639Z,1009.92
2019-01-12T08:12:10.871Z,1009.91
2019-01-12T08:13:15.063Z,1009.87
2019-01-12T08:14:19.264Z,1009.86
2019-01-12T08:15:23.378Z,1009.86
2019-01-12T08:16:27.572Z,1009.86
2019-01-12T08:17:31.798Z,1009.83
2019-01-12T08:18:35.896Z,1009.83
2019-01-12T08:19:40.082Z,1009.82
2019-01-12T08:20:44.249Z,1009.81
2019-01-12T08:21:48.424Z,1009.79
2019-01-12T08:22:53.655Z,1009.80
2019-01-12T08:23:56.772Z,1009.74
2019-01-12T08:25:01.039Z,1009.69
2019-01-12T08:26:05.236Z,1009.71
2019-01-12T08:27:09.358Z,1009.71
2019-01-12T08:28:13.500Z,1009.69
2019-01-12T08:29:17.747Z,1009.65
2019-01-12T08:30:21.937Z,1009.62
2019-01-12T08:31:26.057Z,1009.63
2019-01-12T08:32:30.336Z,1009.63
2019-01-12T08:33:34.499Z,1009.60
2019-01-12T08:34:38.697Z,1009.59
2019-01-12T08:35:42.894Z,1009.53
2019-01-12T08:36:47.897Z,1009.55
2019-01-12T08:37:51.741Z,1009.52
2019-01-12T08:38:55.851Z,1009.49
2019-01-12T08:40:00.171Z,1009.48
2019-01-12T08:41:04.307Z,1009.47
2019-01-12T08:42:08.530Z,1009.48
2019-01-12T08:43:12.614Z,1009.48
2019-01-12T08:44:16.886Z,1009.43
2019-01-12T08:45:20.981Z,1009.42
2019-01-12T08:46:25.214Z,1009.38
2019-01-12T08:47:29.426Z,1009.40
2019-01-12T08:48:33.630Z,1009.36
2019-01-12T08:49:37.828Z,1009.35
2019-01-12T08:50:41.951Z,1009.36
2019-01-12T08:51:46.100Z,1009.34
2019-01-12T08:52:50.256Z,1009.37
2019-01-12T08:53:54.370Z,1009.34
2019-01-12T08:54:58.536Z,1009.33
2019-01-12T08:56:02.802Z,1009.31
2019-01-12T08:57:06.952Z,1009.28
2019-01-12T08:58:11.072Z,1009.26
2019-01-12T08:59:15.345Z,1009.27
2019-01-12T09:00:19.453Z,1009.27
2019-01-12T09:01:23.621Z,1009.23
2019-01-12T09:02:27.851Z,1009.23
2019-01-12T09:03:32.062Z,1009.24
2019-01-12T09:04:43.379Z,1009.22
2019-01-12T09:05:40.468Z,1009.21
2019-01-12T09:06:44.599Z,1009.20
2019-01-12T09:07:48.838Z,1009.18
2019-01-12T09:08:52.992Z,1009.18
2019-01-12T09:09:57.240Z,1009.16
2019-01-12T09:11:01.451Z,1009.12
2019-01-12T09:12:05.579Z,1009.15
2019-01-12T09:13:09.737Z,1009.11
2019-01-12T09:14:13.946Z,1009.11
2019-01-12T09:15:18.171Z,1009.10
2019-01-12T09:16:22.299Z,1009.09
2019-01-12T09:17:26.553Z,1009.06
2019-01-12T09:18:30.792Z,1009.05
2019-01-12T09:19:34.920Z,1009.05
2019-01-12T09:20:39.089Z,1009.03
2019-01-12T09:21:43.223Z,1009.03
2019-01-12T09:22:47.481Z,1009.02
2019-01-12T09:23:51.737Z,1009.00
2019-01-12T09:24:55.948Z,1008.99
2019-01-12T09:26:00.144Z,1008.98
2019-01-12T09:27:04.373Z,1008.98
2019-01-12T09:28:08.471Z,1008.95
2019-01-12T09:29:12.697Z,1008.96
2019-01-12T09:30:16.937Z,1008.96
2019-01-12T09:31:21.127Z,1008.91
2019-01-12T09:32:25.221Z,1008.92
2019-01-12T09:33:29.512Z,1008.92
2019-01-12T09:34:33.640Z,1008.90
2019-01-12T09:35:37.836Z,1008.87
2019-01-12T09:36:42.032Z,1008.86
2019-01-12T09:37:46.164Z,1008.81
2019-01-12T09:38:50.492Z,1008.81
2019-01-12T09:39:54.674Z,1008.81
2019-01-12T09:40:58.898Z,1008.79
2019-01-12T09:42:02.989Z,1008.80
2019-01-12T09:43:07.263Z,1008.78
2019-01-12T09:44:11.494Z,1008.77
2019-01-12T09:45:15.587Z,1008.75
2019-01-12T09:46:19.759Z,1008.74
2019-01-12T09:47:24.051Z,1008.75
2019-01-12T09:48:28.157Z,1008.71
2019-01-12T09:49:32.342Z,1008.70
2019-01-12T09:50:36.606Z,1008.71
2019-01-12T09:51:40.807Z,1008.71
2019-01-12T09:52:44.989Z,1008.65
2019-01-12T09:53:49.103Z,1008.63
2019-01-12T09:54:53.312Z,1008.64
2019-01-12T09:55:57.552Z,1008.61
2019-01-12T09:57:01.775Z,1008.57
2019-01-12T09:58:05.970Z,1008.54
2019-01-12T09:59:10.082Z,1008.54
2019-01-12T10:00:14.357Z,1008.50
2019-01-12T10:01:18.443Z,1008.47
2019-01-12T10:02:22.707Z,1008.43
2019-01-12T10:03:26.949Z,1008.40
2019-01-12T10:04:31.078Z,1008.37
2019-01-12T10:05:35.295Z,1008.37
2019-01-12T10:06:39.443Z,1008.36
2019-01-12T10:07:43.569Z,1008.32
2019-01-12T10:08:47.769Z,1008.29
2019-01-12T10:09:51.875Z,1008.27
2019-01-12T10:10:56.072Z,1008.26
2019-01-12T10:12:00.308Z,1008.23
2019-01-12T10:13:04.471Z,1008.22
2019-01-12T10:14:08.620Z,1008.20
2019-01-12T10:15:12.837Z,1008.15
2019-01-12T10:16:17.060Z,1008.11
2019-01-12T10:17:21.260Z,1008.10
2019-01-12T10:18:25.450Z,1008.03
2019-01-12T10:19:29.721Z,1008.02
2019-01-12T10:20:33.963Z,1008.01
2019-01-12T10:21:38.140Z,1007.94
2019-01-12T10:22:42.445Z,1007.91
2019-01-12T10:23:46.578Z,1007.86
2019-01-12T10:24:50.817Z,1007.77
2019-01-12T10:25:54.954Z,1007.80
2019-01-12T10:26:59.118Z,1007.79
2019-01-12T10:28:03.373Z,1007.77
2019-01-12T10:29:07.579Z,1007.68
2019-01-12T10:30:11.798Z,1007.67
2019-01-12T10:31:16.028Z,1007.65
2019-01-12T10:32:20.230Z,1007.66
2019-01-12T10:33:24.435Z,1007.66
2019-01-12T10:34:31.660Z,1007.63
2019-01-12T10:35:34.834Z,1007.60
2019-01-12T10:36:39.003Z,1007.55
2019-01-12T10:37:43.164Z,1007.53
2019-01-12T10:38:47.405Z,1007.48
2019-01-12T10:39:51.646Z,1007.48
2019-01-12T10:40:55.860Z,1007.44
2019-01-12T10:42:00.117Z,1007.42
2019-01-12T10:43:04.254Z,1007.38
2019-01-12T10:44:08.537Z,1007.31
2019-01-12T10:45:12.778Z,1007.23
2019-01-12T10:46:16.993Z,1007.21
2019-01-12T10:47:21.139Z,1007.17
2019-01-12T10:48:25.473Z,1007.13
2019-01-12T10:49:29.647Z,1007.10
2019-01-12T10:50:33.824Z,1007.02
2019-01-12T10:51:38.131Z,1007.06
2019-01-12T10:52:42.214Z,1007.08
2019-01-12T10:53:46.508Z,1007.06
2019-01-12T10:54:50.714Z,1007.07
2019-01-12T10:55:54.845Z,1007.05
2019-01-12T10:57:05.258Z,1007.01
2019-01-12T10:58:03.411Z,1007.03
2019-01-12T10:59:07.624Z,1007.08
2019-01-12T11:00:11.878Z,1007.15
2019-01-12T11:01:16.138Z,1007.12
2019-01-12T11:02:20.253Z,1007.12
2019-01-12T11:03:24.565Z,1007.06
2019-01-12T11:04:28.788Z,1007.08
2019-01-12T11:05:33.053Z,1007.06
2019-01-12T11:06:37.176Z,1007.04
2019-01-12T11:07:41.438Z,1007.02
2019-01-12T11:08:45.696Z,1006.96
2019-01-12T11:09:49.949Z,1006.98
2019-01-12T11:10:54.101Z,1006.98
2019-01-12T11:11:58.467Z,1006.91
2019-01-12T11:13:02.583Z,1006.88
2019-01-12T11:14:06.872Z,1006.86
2019-01-12T11:15:11.137Z,1006.81
2019-01-12T11:16:15.374Z,1006.81
2019-01-12T11:17:19.583Z,1006.78
2019-01-12T11:18:23.689Z,1006.79
2019-01-12T11:19:28.816Z,1006.72
2019-01-12T11:20:32.660Z,1006.70
2019-01-12T11:21:36.922Z,1006.68
2019-01-12T11:22:42.066Z,1006.62
2019-01-12T11:23:45.931Z,1006.61
2019-01-12T11:24:51.178Z,1006.58
2019-01-12T11:25:54.889Z,1006.52
2019-01-12T11:26:59.068Z,1006.52
2019-01-12T11:28:03.333Z,1006.50
2019-01-12T11:29:08.507Z,1006.46
2019-01-12T11:30:12.309Z,1006.46
2019-01-12T11:31:19.957Z,1006.41
2019-01-12T11:32:21.214Z,1006.40
2019-01-12T11:33:25.484Z,1006.37
2019-01-12T11:34:29.717Z,1006.37
2019-01-12T11:35:33.818Z,1006.35
2019-01-12T11:36:38.057Z,1006.31
2019-01-12T11:37:42.367Z,1006.31
2019-01-12T11:38:46.554Z,1006.30
2019-01-12T11:39:50.772Z,1006.27
2019-01-12T11:40:55.030Z,1006.27
2019-01-12T11:41:59.177Z,1006.25
2019-01-12T11:43:03.479Z,1006.22
2019-01-12T11:44:07.574Z,1006.23
2019-01-12T11:45:11.862Z,1006.19
2019-01-12T11:46:16.053Z,1006.17
2019-01-12T11:47:20.266Z,1006.16
2019-01-12T11:48:27.531Z,1006.13
2019-01-12T11:49:30.863Z,1006.12
2019-01-12T11:50:34.939Z,1006.09
2019-01-12T11:51:39.174Z,1006.08
2019-01-12T11:52:43.459Z,1006.03
2019-01-12T11:53:47.682Z,1006.05
2019-01-12T11:54:51.945Z,1006.00
2019-01-12T11:55:56.191Z,1005.96
2019-01-12T11:57:00.445Z,1005.95
2019-01-12T11:58:04.562Z,1005.95
2019-01-12T11:59:08.880Z,1005.93
2019-01-12T12:00:13.085Z,1005.85
2019-01-12T12:01:17.319Z,1005.84
2019-01-12T12:02:21.537Z,1005.80
2019-01-12T12:03:25.681Z,1005.74
2019-01-12T12:04:29.983Z,1005.74
2019-01-12T12:05:34.207Z,1005.71
2019-01-12T12:06:38.289Z,1005.66
2019-01-12T12:07:42.540Z,1005.66
2019-01-12T12:08:46.809Z,1005.63
2019-01-12T12:09:50.999Z,1005.57
2019-01-12T12:10:55.126Z,1005.60
2019-01-12T12:11:59.481Z,1005.54
2019-01-12T12:13:03.557Z,1005.51
2019-01-12T12:14:07.739Z,1005.51
2019-01-12T12:15:12.001Z,1005.51
2019-01-12T12:16:16.245Z,1005.49
2019-01-12T12:17:20.479Z,1005.45
2019-01-12T12:18:24.715Z,1005.46
2019-01-12T12:19:28.954Z,1005.38
2019-01-12T12:20:33.255Z,1005.40
2019-01-12T12:21:37.452Z,1005.32
2019-01-12T12:22:41.645Z,1005.32
2019-01-12T12:23:45.925Z,1005.31
2019-01-12T12:24:50.114Z,1005.29
2019-01-12T12:25:54.286Z,1005.23
2019-01-12T12:26:58.532Z,1005.23
2019-01-12T12:28:02.782Z,1005.20
2019-01-12T12:29:07.006Z,1005.19
2019-01-12T12:30:11.119Z,1005.17
2019-01-12T12:31:15.362Z,1005.13
2019-01-12T12:32:19.564Z,1005.10
2019-01-12T12:33:23.881Z,1005.09
2019-01-12T12:34:27.995Z,1005.06
2019-01-12T12:35:37.625Z,1005.02
2019-01-12T12:36:36.808Z,1004.97
2019-01-12T12:37:41.064Z,1004.96
2019-01-12T12:38:46.222Z,1004.91
2019-01-12T12:39:50.013Z,1004.86
2019-01-12T12:40:54.321Z,1004.85
2019-01-12T12:41:58.508Z,1004.85
2019-01-12T12:43:02.637Z,1004.82
2019-01-12T12:44:06.947Z,1004.75
2019-01-12T12:45:11.050Z,1004.72
2019-01-12T12:46:15.171Z,1004.73
2019-01-12T12:47:19.475Z,1004.70
2019-01-12T12:48:23.671Z,1004.67
2019-01-12T12:49:27.867Z,1004.63
2019-01-12T12:50:32.087Z,1004.53
2019-01-12T12:51:36.284Z,1004.53
2019-01-12T12:52:40.520Z,1004.49
2019-01-12T12:53:44.637Z,1004.49
2019-01-12T12:54:48.931Z,1004.46
2019-01-12T12:55:53.132Z,1004.39